KMTJ/MTJ METAR and TAF weather

Enter ICAO airport designator
Station Type Date Time Source
KMTJ METAR 2019/09/21 20:53 UTC NOAA

KMTJ 212053Z AUTO 36008KT 10SM CLR 21/M03 A3006 RMK AO2 SLP124 T02061028 56021


Station Type Date Time Source
KMTJ Decoded METAR 2019/09/21 20:53 UTC NOAA

MONTROSE REGIONAL AIRPORT, CO, United States (KMTJ) 38-30N 107-54W 1750M
Sep 21, 2019 - 04:53 PM EDT / 2019.09.21 2053 UTC
Wind: from the N (360 degrees) at 9 MPH (8 KT):0
Visibility: 10 mile(s):0
Sky conditions: clear
Temperature: 69.1 F (20.6 C)
Dew Point: 27.0 F (-2.8 C)
Relative Humidity: 20%
Pressure (altimeter): 30.06 in. Hg (1017 hPa)
Pressure tendency: 0.06 inches (2.1 hPa) lower than three hours ago
ob: KMTJ 212053Z AUTO 36008KT 10SM CLR 21/M03 A3006 RMK AO2 SLP124 T02061028 56021
cycle: 21

Station Type Date Time Source
KMTJ TAF 2019/09/21 18:30 UTC NOAA

TAF KMTJ 211728Z 2118/2218 34005KT P6SM FEW250
FM212000 30011KT P6SM FEW120 FEW250
FM220200 23005KT P6SM FEW120 FEW250
FM220500 15005KT P6SM SKC
FM221500 00000KT P6SM SKC

Example: see airport list